This is the latest recevied weather packets stored in our database for station/object JM1YTT-13. If no packets are shown the sender has not sent any weather packets the latest 10 day(s).
| Time | Temp. | Humidity | Pressure | Rain* | Wind** | Luminosity | Snow |
|---|---|---|---|---|---|---|---|
| 1777711390 | 23.89° C | 36% | 1006.8 hPa | 0 mm | - | - | - |
| 1777709590 | 25° C | 35% | 1006.4 hPa | 0 mm | - | - | - |
| 1777707790 | 26.67° C | 32% | 1006 hPa | 0 mm | - | - | - |
| 1777705990 | 27.78° C | 33% | 1005.8 hPa | 0 mm | - | - | - |
| 1777704190 | 27.22° C | 31% | 1005.2 hPa | 0 mm | - | - | - |
| 1777702390 | 27.78° C | 32% | 1004.8 hPa | 0 mm | - | - | - |
| 1777700590 | 27.78° C | 32% | 1004.4 hPa | 0 mm | - | - | - |
| 1777698790 | 27.78° C | 28% | 1004.1 hPa | 0 mm | - | - | - |
| 1777696990 | 27.78° C | 28% | 1003.8 hPa | 0 mm | - | - | - |
| 1777695190 | 27.22° C | 29% | 1003.9 hPa | 0 mm | - | - | - |
| 1777693390 | 26.67° C | 30% | 1003.4 hPa | 0 mm | - | - | - |
| 1777691590 | 26.11° C | 33% | 1002.9 hPa | 0 mm | - | - | - |
| 1777689790 | 26.11° C | 40% | 1002.6 hPa | 0 mm | - | - | - |
| 1777687990 | 24.44° C | 41% | 1002.4 hPa | 0 mm | - | - | - |
| 1777686190 | 23.89° C | 41% | 1002.3 hPa | 0 mm | - | - | - |
| 1777684390 | 23.33° C | 45% | 1002.2 hPa | 0 mm | - | - | - |
| 1777682590 | 22.22° C | 48% | 1001.9 hPa | 0 mm | - | - | - |
| 1777680790 | 22.22° C | 45% | 1001.6 hPa | 0 mm | - | - | - |
| 1777678990 | 21.67° C | 44% | 1001.2 hPa | 0 mm | - | - | - |
| 1777677190 | 20.56° C | 46% | 1000.6 hPa | 0 mm | - | - | - |
| 1777675390 | 19.44° C | 45% | 1000.1 hPa | 0 mm | - | - | - |
| 1777673590 | 18.33° C | 52% | 999.6 hPa | 0 mm | - | - | - |
| 1777671790 | 16.67° C | 57% | 999 hPa | 0 mm | - | - | - |
| 1777669990 | 16.11° C | 59% | 998.7 hPa | 0 mm | - | - | - |
| 1777668190 | 14.44° C | 68% | 997.8 hPa | 0 mm | - | - | - |
* Rain latest hour (hover to see other rain measurements)
** Current wind speed in m/s (hover to see current wind gust speed)